createdAt,value
2022-09-12T00:00:56.840Z,1014.09
2022-09-12T00:01:56.851Z,1014.13
2022-09-12T00:02:56.814Z,1014.09
2022-09-12T00:03:56.787Z,1014.14
2022-09-12T00:04:56.779Z,1014.12
2022-09-12T00:05:56.755Z,1014.07
2022-09-12T00:06:56.748Z,1014.14
2022-09-12T00:07:56.762Z,1014.11
2022-09-12T00:08:56.721Z,1014.09
2022-09-12T00:09:56.698Z,1014.07
2022-09-12T00:10:56.702Z,1014.07
2022-09-12T00:11:56.681Z,1014.07
2022-09-12T00:12:56.685Z,1014.09
2022-09-12T00:13:56.651Z,1014.03
2022-09-12T00:14:56.642Z,1014.04
2022-09-12T00:15:56.672Z,1014.00
2022-09-12T00:16:56.620Z,1013.97
2022-09-12T00:17:56.616Z,1013.96
2022-09-12T00:18:56.591Z,1013.93
2022-09-12T00:19:56.575Z,1013.97
2022-09-12T00:20:56.594Z,1013.92
2022-09-12T00:21:56.574Z,1013.93
2022-09-12T00:22:56.561Z,1013.97
2022-09-12T00:23:56.522Z,1013.92
2022-09-12T00:24:56.548Z,1013.93
2022-09-12T00:25:56.497Z,1013.89
2022-09-12T00:26:56.500Z,1013.93
2022-09-12T00:27:56.517Z,1013.95
2022-09-12T00:28:56.467Z,1013.91
2022-09-12T00:29:56.446Z,1013.93
2022-09-12T00:30:56.441Z,1013.88
2022-09-12T00:31:56.495Z,1013.87
2022-09-12T00:32:56.445Z,1013.84
2022-09-12T00:33:56.407Z,1013.86
2022-09-12T00:34:56.393Z,1013.88
2022-09-12T00:35:56.368Z,1013.87
2022-09-12T00:36:56.370Z,1013.86
2022-09-12T00:37:56.405Z,1013.88
2022-09-12T00:38:56.341Z,1013.86
2022-09-12T00:39:56.402Z,1013.91
2022-09-12T00:40:56.318Z,1013.86
2022-09-12T00:41:56.332Z,1013.88
2022-09-12T00:42:56.302Z,1013.86
2022-09-12T00:43:56.276Z,1013.93
2022-09-12T00:44:56.261Z,1013.88
2022-09-12T00:45:56.351Z,1013.88
2022-09-12T00:46:56.232Z,1013.86
2022-09-12T00:47:56.238Z,1013.91
2022-09-12T00:48:56.214Z,1013.89
2022-09-12T00:49:56.206Z,1013.86
2022-09-12T00:50:56.193Z,1013.84
2022-09-12T00:51:56.173Z,1013.82
2022-09-12T00:52:56.172Z,1013.80
2022-09-12T00:53:56.164Z,1013.79
2022-09-12T00:54:56.159Z,1013.74
2022-09-12T00:55:56.129Z,1013.74
2022-09-12T00:56:56.101Z,1013.73
2022-09-12T00:57:56.148Z,1013.75
2022-09-12T00:58:56.077Z,1013.75
2022-09-12T00:59:56.069Z,1013.73
2022-09-12T01:00:56.080Z,1013.70
2022-09-12T01:01:56.128Z,1013.73
2022-09-12T01:02:56.063Z,1013.71
2022-09-12T01:03:56.022Z,1013.72
2022-09-12T01:04:55.999Z,1013.70
2022-09-12T01:05:56.009Z,1013.66
2022-09-12T01:06:55.976Z,1013.71
2022-09-12T01:07:56.009Z,1013.71
2022-09-12T01:08:55.948Z,1013.67
2022-09-12T01:09:55.941Z,1013.69
2022-09-12T01:10:55.934Z,1013.71
2022-09-12T01:11:55.918Z,1013.71
2022-09-12T01:12:55.922Z,1013.73
2022-09-12T01:13:55.904Z,1013.73
2022-09-12T01:14:55.870Z,1013.68
2022-09-12T01:15:55.861Z,1013.70
2022-09-12T01:16:55.930Z,1013.68
2022-09-12T01:17:55.879Z,1013.70
2022-09-12T01:18:55.819Z,1013.66
2022-09-12T01:19:55.814Z,1013.65
2022-09-12T01:20:55.794Z,1013.63
2022-09-12T01:21:55.785Z,1013.66
2022-09-12T01:22:55.787Z,1013.71
2022-09-12T01:23:55.760Z,1013.72
2022-09-12T01:24:55.750Z,1013.71
2022-09-12T01:25:55.734Z,1013.72
2022-09-12T01:26:55.716Z,1013.73
2022-09-12T01:27:55.724Z,1013.68
2022-09-12T01:28:55.694Z,1013.67
2022-09-12T01:29:55.686Z,1013.64
2022-09-12T01:30:55.666Z,1013.67
2022-09-12T01:31:55.680Z,1013.66
2022-09-12T01:32:55.655Z,1013.73
2022-09-12T01:33:55.646Z,1013.70
2022-09-12T01:34:55.615Z,1013.67
2022-09-12T01:35:55.612Z,1013.64
2022-09-12T01:36:55.593Z,1013.64
2022-09-12T01:37:55.597Z,1013.64
2022-09-12T01:38:55.567Z,1013.63
2022-09-12T01:39:55.595Z,1013.64
2022-09-12T01:40:55.536Z,1013.61
2022-09-12T01:41:55.529Z,1013.63
2022-09-12T01:42:55.531Z,1013.56
2022-09-12T01:43:55.506Z,1013.58
2022-09-12T01:44:55.494Z,1013.55
2022-09-12T01:45:55.569Z,1013.55
2022-09-12T01:46:55.460Z,1013.52
2022-09-12T01:47:55.493Z,1013.58
2022-09-12T01:48:55.431Z,1013.56
2022-09-12T01:49:55.445Z,1013.56
2022-09-12T01:50:55.407Z,1013.52
2022-09-12T01:51:55.402Z,1013.58
2022-09-12T01:52:55.427Z,1013.57
2022-09-12T01:53:55.385Z,1013.48
2022-09-12T01:54:55.357Z,1013.55
2022-09-12T01:55:55.345Z,1013.56
2022-09-12T01:56:55.329Z,1013.53
2022-09-12T01:57:55.371Z,1013.53
2022-09-12T01:58:55.309Z,1013.50
2022-09-12T01:59:55.298Z,1013.48
2022-09-12T02:00:55.349Z,1013.51
2022-09-12T02:01:55.329Z,1013.49
2022-09-12T02:02:55.272Z,1013.48
2022-09-12T02:03:55.248Z,1013.50
2022-09-12T02:04:55.231Z,1013.50
2022-09-12T02:05:55.266Z,1013.53
2022-09-12T02:06:55.235Z,1013.50
2022-09-12T02:07:55.209Z,1013.53
2022-09-12T02:08:55.176Z,1013.50
2022-09-12T02:09:55.184Z,1013.49
2022-09-12T02:10:55.173Z,1013.41
2022-09-12T02:11:55.140Z,1013.44
2022-09-12T02:12:55.165Z,1013.46
2022-09-12T02:13:55.127Z,1013.41
2022-09-12T02:14:55.099Z,1013.46
2022-09-12T02:15:55.095Z,1013.42
2022-09-12T02:16:55.073Z,1013.38
2022-09-12T02:17:55.103Z,1013.40
2022-09-12T02:18:55.075Z,1013.37
2022-09-12T02:19:55.047Z,1013.37
2022-09-12T02:20:55.086Z,1013.35
2022-09-12T02:21:55.020Z,1013.32
2022-09-12T02:22:55.012Z,1013.38
2022-09-12T02:23:54.990Z,1013.33
2022-09-12T02:24:55.017Z,1013.30
2022-09-12T02:25:54.972Z,1013.31
2022-09-12T02:26:54.951Z,1013.28
2022-09-12T02:27:54.984Z,1013.30
2022-09-12T02:28:54.918Z,1013.28
2022-09-12T02:29:54.923Z,1013.29
2022-09-12T02:30:54.931Z,1013.31
2022-09-12T02:31:54.887Z,1013.29
2022-09-12T02:32:54.886Z,1013.31
2022-09-12T02:33:54.861Z,1013.30
2022-09-12T02:34:54.844Z,1013.32
2022-09-12T02:35:54.837Z,1013.26
2022-09-12T02:36:54.827Z,1013.28
2022-09-12T02:37:54.861Z,1013.25
2022-09-12T02:38:54.791Z,1013.29
2022-09-12T02:39:54.801Z,1013.24
2022-09-12T02:40:54.766Z,1013.25
2022-09-12T02:41:54.764Z,1013.25
2022-09-12T02:42:54.756Z,1013.26
2022-09-12T02:43:54.794Z,1013.27
2022-09-12T02:44:54.720Z,1013.23
2022-09-12T02:45:54.741Z,1013.26
2022-09-12T02:46:54.690Z,1013.23
2022-09-12T02:47:54.696Z,1013.23
2022-09-12T02:48:54.676Z,1013.21
2022-09-12T02:49:54.656Z,1013.25
2022-09-12T02:50:54.640Z,1013.24
2022-09-12T02:51:54.634Z,1013.22
2022-09-12T02:52:54.686Z,1013.23
2022-09-12T02:53:54.605Z,1013.23
2022-09-12T02:54:54.614Z,1013.25
2022-09-12T02:55:54.612Z,1013.21
2022-09-12T02:56:54.589Z,1013.20
2022-09-12T02:57:54.569Z,1013.17
2022-09-12T02:58:54.560Z,1013.20
2022-09-12T02:59:54.524Z,1013.22
2022-09-12T03:00:54.538Z,1013.21
2022-09-12T03:01:54.619Z,1013.19
2022-09-12T03:02:54.500Z,1013.18
2022-09-12T03:03:54.471Z,1013.10
2022-09-12T03:04:54.457Z,1013.13
2022-09-12T03:05:54.445Z,1013.13
2022-09-12T03:06:54.427Z,1013.13
2022-09-12T03:07:54.433Z,1013.10
2022-09-12T03:08:54.405Z,1013.13
2022-09-12T03:09:54.400Z,1013.12
2022-09-12T03:10:54.378Z,1013.08
2022-09-12T03:11:54.369Z,1013.09
2022-09-12T03:12:54.366Z,1013.07
2022-09-12T03:13:54.344Z,1013.07
2022-09-12T03:14:54.330Z,1013.06
2022-09-12T03:15:54.317Z,1013.05
2022-09-12T03:16:54.301Z,1013.10
2022-09-12T03:17:54.311Z,1013.07
2022-09-12T03:18:54.278Z,1013.08
2022-09-12T03:19:54.276Z,1013.09
2022-09-12T03:20:54.245Z,1013.12
2022-09-12T03:21:54.238Z,1013.04
2022-09-12T03:22:54.239Z,1013.08
2022-09-12T03:23:54.215Z,1013.11
2022-09-12T03:24:54.193Z,1013.13
2022-09-12T03:25:54.181Z,1013.14
2022-09-12T03:26:54.168Z,1013.11
2022-09-12T03:27:54.178Z,1013.08
2022-09-12T03:28:54.144Z,1013.10
2022-09-12T03:29:54.135Z,1013.08
2022-09-12T03:30:54.161Z,1013.12
2022-09-12T03:31:54.111Z,1013.09
2022-09-12T03:32:54.105Z,1013.16
2022-09-12T03:33:54.081Z,1013.11
2022-09-12T03:34:54.064Z,1013.12
2022-09-12T03:35:54.060Z,1013.13
2022-09-12T03:36:54.054Z,1013.11
2022-09-12T03:37:54.049Z,1013.15
2022-09-12T03:38:54.018Z,1013.17
2022-09-12T03:39:54.031Z,1013.14
2022-09-12T03:40:55.011Z,1013.13
2022-09-12T03:41:53.982Z,1013.13
2022-09-12T03:42:53.978Z,1013.12
2022-09-12T03:43:53.955Z,1013.15
2022-09-12T03:44:53.937Z,1013.11
2022-09-12T03:45:54.002Z,1013.10
2022-09-12T03:46:53.922Z,1013.12
2022-09-12T03:47:53.915Z,1013.10
2022-09-12T03:48:53.892Z,1013.13
2022-09-12T03:49:53.895Z,1013.16
2022-09-12T03:50:53.859Z,1013.16
2022-09-12T03:51:53.851Z,1013.16
2022-09-12T03:52:53.849Z,1013.13
2022-09-12T03:53:53.832Z,1013.14
2022-09-12T03:54:53.812Z,1013.15
2022-09-12T03:55:53.800Z,1013.12
2022-09-12T03:56:53.803Z,1013.14
2022-09-12T03:57:53.789Z,1013.14
2022-09-12T03:58:53.758Z,1013.14
2022-09-12T03:59:53.744Z,1013.12
2022-09-12T04:00:53.760Z,1013.10
2022-09-12T04:01:53.764Z,1013.08
2022-09-12T04:02:53.715Z,1013.07
2022-09-12T04:03:53.724Z,1013.08
2022-09-12T04:04:53.680Z,1013.08
2022-09-12T04:05:53.678Z,1013.05
2022-09-12T04:06:53.671Z,1013.08
2022-09-12T04:07:53.665Z,1013.09
2022-09-12T04:08:53.625Z,1013.09
2022-09-12T04:09:53.670Z,1013.07
2022-09-12T04:10:53.602Z,1013.06
2022-09-12T04:11:53.585Z,1013.02
2022-09-12T04:12:53.584Z,1013.03
2022-09-12T04:13:53.562Z,1013.06
2022-09-12T04:14:53.546Z,1013.02
2022-09-12T04:15:53.536Z,1012.98
2022-09-12T04:16:53.563Z,1012.99
2022-09-12T04:17:53.725Z,1013.01
2022-09-12T04:18:53.493Z,1012.98
2022-09-12T04:19:53.482Z,1012.99
2022-09-12T04:20:53.466Z,1012.99
2022-09-12T04:21:53.464Z,1012.97
2022-09-12T04:22:53.447Z,1012.98
2022-09-12T04:23:53.430Z,1012.96
2022-09-12T04:24:53.419Z,1012.98
2022-09-12T04:25:53.404Z,1012.95
2022-09-12T04:26:53.382Z,1012.93
2022-09-12T04:27:53.355Z,1012.94
2022-09-12T04:28:53.379Z,1012.92
2022-09-12T04:29:53.347Z,1012.90
2022-09-12T04:30:53.368Z,1012.92
2022-09-12T04:31:53.301Z,1012.96
2022-09-12T04:32:53.286Z,1012.95
2022-09-12T04:33:53.313Z,1012.95
2022-09-12T04:34:53.290Z,1012.94
2022-09-12T04:35:53.274Z,1013.00
2022-09-12T04:36:53.277Z,1013.00
2022-09-12T04:37:53.228Z,1012.98
2022-09-12T04:38:53.237Z,1012.98
2022-09-12T04:39:53.210Z,1012.92
2022-09-12T04:40:53.145Z,1012.94
2022-09-12T04:41:53.133Z,1012.92
2022-09-12T04:42:53.133Z,1012.94
2022-09-12T04:43:53.118Z,1012.93
2022-09-12T04:44:53.085Z,1012.92
2022-09-12T04:45:53.167Z,1012.97
2022-09-12T04:46:53.073Z,1012.96
2022-09-12T04:47:53.088Z,1012.91
2022-09-12T04:48:56.618Z,1012.92
2022-09-12T04:49:53.025Z,1012.90
2022-09-12T04:50:53.009Z,1012.85
2022-09-12T04:51:53.000Z,1012.82
2022-09-12T04:52:53.010Z,1012.83
2022-09-12T04:53:52.975Z,1012.82
2022-09-12T04:54:52.956Z,1012.84
2022-09-12T04:55:52.945Z,1012.83
2022-09-12T04:56:52.940Z,1012.84
2022-09-12T04:57:52.942Z,1012.86
2022-09-12T04:58:52.915Z,1012.84
2022-09-12T04:59:52.901Z,1012.80
2022-09-12T05:00:52.931Z,1012.82
2022-09-12T05:01:52.909Z,1012.72
2022-09-12T05:02:52.892Z,1012.71
2022-09-12T05:03:52.843Z,1012.72
2022-09-12T05:04:52.830Z,1012.70
2022-09-12T05:05:56.341Z,1012.71
2022-09-12T05:06:52.813Z,1012.72
2022-09-12T05:07:52.806Z,1012.68
2022-09-12T05:08:52.783Z,1012.67
2022-09-12T05:09:52.761Z,1012.67
2022-09-12T05:10:52.763Z,1012.69
2022-09-12T05:12:08.154Z,1012.64
2022-09-12T05:12:52.753Z,1012.68
2022-09-12T05:13:52.738Z,1012.70
2022-09-12T05:14:52.714Z,1012.68
2022-09-12T05:15:52.717Z,1012.70
2022-09-12T05:16:52.723Z,1012.67
2022-09-12T05:17:52.675Z,1012.65
2022-09-12T05:18:52.651Z,1012.69
2022-09-12T05:19:52.658Z,1012.66
2022-09-12T05:20:52.627Z,1012.67
2022-09-12T05:21:52.608Z,1012.68
2022-09-12T05:22:52.619Z,1012.69
2022-09-12T05:23:52.586Z,1012.65
2022-09-12T05:24:52.584Z,1012.71
2022-09-12T05:25:52.571Z,1012.71
2022-09-12T05:26:52.549Z,1012.69
2022-09-12T05:27:52.551Z,1012.72
2022-09-12T05:28:52.533Z,1012.72
2022-09-12T05:29:52.532Z,1012.73
2022-09-12T05:30:52.577Z,1012.72
2022-09-12T05:31:52.511Z,1012.66
2022-09-12T05:32:52.515Z,1012.70
2022-09-12T05:33:52.493Z,1012.69
2022-09-12T05:34:52.455Z,1012.64
2022-09-12T05:35:52.432Z,1012.71
2022-09-12T05:36:52.454Z,1012.68
2022-09-12T05:37:52.437Z,1012.67
2022-09-12T05:38:52.392Z,1012.70
2022-09-12T05:39:52.426Z,1012.62
2022-09-12T05:40:52.363Z,1012.67
2022-09-12T05:41:52.351Z,1012.65
2022-09-12T05:42:52.349Z,1012.62
2022-09-12T05:43:52.341Z,1012.67
2022-09-12T05:44:52.388Z,1012.66
2022-09-12T05:45:52.381Z,1012.65
2022-09-12T05:46:52.301Z,1012.65
2022-09-12T05:47:52.298Z,1012.66
2022-09-12T05:48:55.829Z,1012.68
2022-09-12T05:49:52.248Z,1012.68
2022-09-12T05:50:52.241Z,1012.71
2022-09-12T05:51:52.235Z,1012.70
2022-09-12T05:52:52.227Z,1012.74
2022-09-12T05:53:52.198Z,1012.76
2022-09-12T05:54:52.185Z,1012.79
2022-09-12T05:55:52.234Z,1012.76
2022-09-12T05:56:52.167Z,1012.77
2022-09-12T05:57:52.162Z,1012.79
2022-09-12T05:58:52.152Z,1012.83
2022-09-12T05:59:52.105Z,1012.84
2022-09-12T06:00:52.101Z,1012.85
2022-09-12T06:01:52.109Z,1012.88
2022-09-12T06:02:52.091Z,1012.90
2022-09-12T06:03:52.071Z,1012.91
2022-09-12T06:04:52.071Z,1012.90
2022-09-12T06:05:52.031Z,1012.88
2022-09-12T06:06:52.032Z,1012.83
2022-09-12T06:07:52.016Z,1012.84
2022-09-12T06:08:52.003Z,1012.83
2022-09-12T06:09:51.986Z,1012.81
2022-09-12T06:10:51.976Z,1012.85
2022-09-12T06:11:51.987Z,1012.86
2022-09-12T06:12:51.977Z,1012.83
2022-09-12T06:13:51.927Z,1012.82
2022-09-12T06:14:51.914Z,1012.80
2022-09-12T06:15:51.895Z,1012.83
2022-09-12T06:16:51.922Z,1012.86
2022-09-12T06:17:51.882Z,1012.86
2022-09-12T06:18:51.862Z,1012.85
2022-09-12T06:19:51.847Z,1012.87
2022-09-12T06:20:51.833Z,1012.88
2022-09-12T06:21:51.815Z,1012.82
2022-09-12T06:22:51.832Z,1012.85
2022-09-12T06:23:51.794Z,1012.87
2022-09-12T06:24:54.825Z,1012.89
2022-09-12T06:25:51.794Z,1012.84
2022-09-12T06:26:51.758Z,1012.85
2022-09-12T06:27:51.760Z,1012.88
2022-09-12T06:28:51.732Z,1012.87
2022-09-12T06:29:51.719Z,1012.89
2022-09-12T06:30:51.738Z,1012.88
2022-09-12T06:31:51.695Z,1012.89
2022-09-12T06:32:51.706Z,1012.87
2022-09-12T06:33:51.661Z,1012.88
2022-09-12T06:34:51.657Z,1012.94
2022-09-12T06:35:51.638Z,1012.91
2022-09-12T06:36:51.628Z,1012.85
2022-09-12T06:37:51.628Z,1012.87
2022-09-12T06:38:51.606Z,1012.86
2022-09-12T06:39:51.629Z,1012.89
2022-09-12T06:40:51.574Z,1012.88
2022-09-12T06:41:51.564Z,1012.82
2022-09-12T06:42:51.556Z,1012.84
2022-09-12T06:43:51.523Z,1012.80
2022-09-12T06:44:51.522Z,1012.84
2022-09-12T06:45:51.535Z,1012.85
2022-09-12T06:46:51.485Z,1012.84
2022-09-12T06:47:51.488Z,1012.85
2022-09-12T06:48:51.463Z,1012.89
2022-09-12T06:49:51.439Z,1012.88
2022-09-12T06:50:51.445Z,1012.88
2022-09-12T06:51:51.417Z,1012.90
2022-09-12T06:52:51.401Z,1012.90
2022-09-12T06:53:51.406Z,1012.89
2022-09-12T06:54:51.374Z,1012.90
2022-09-12T06:55:51.392Z,1012.90
2022-09-12T06:56:51.350Z,1012.89
2022-09-12T06:57:51.346Z,1012.89
2022-09-12T06:58:51.323Z,1012.85
2022-09-12T06:59:51.302Z,1012.86
2022-09-12T07:00:52.555Z,1012.85
2022-09-12T07:01:51.311Z,1012.86
2022-09-12T07:02:51.400Z,1012.83
2022-09-12T07:03:51.267Z,1012.79
2022-09-12T07:04:51.252Z,1012.83
2022-09-12T07:05:51.240Z,1012.82
2022-09-12T07:06:51.225Z,1012.82
2022-09-12T07:07:51.337Z,1012.83
2022-09-12T07:08:53.619Z,1012.80
2022-09-12T07:09:51.172Z,1012.80
2022-09-12T07:10:51.169Z,1012.77
2022-09-12T07:11:51.173Z,1012.74
2022-09-12T07:12:51.165Z,1012.82
2022-09-12T07:13:51.119Z,1012.77
2022-09-12T07:14:51.148Z,1012.81
2022-09-12T07:15:51.120Z,1012.75
2022-09-12T07:16:51.116Z,1012.82
2022-09-12T07:17:51.087Z,1012.83
2022-09-12T07:18:51.054Z,1012.86
2022-09-12T07:19:51.047Z,1012.85
2022-09-12T07:20:51.047Z,1012.83
2022-09-12T07:21:54.249Z,1012.83
2022-09-12T07:22:51.023Z,1012.89
2022-09-12T07:23:50.979Z,1012.78
2022-09-12T07:24:50.973Z,1012.84
2022-09-12T07:25:50.969Z,1012.82
2022-09-12T07:26:51.006Z,1012.86
2022-09-12T07:27:51.343Z,1012.85
2022-09-12T07:28:50.925Z,1012.87
2022-09-12T07:29:50.920Z,1012.86
2022-09-12T07:30:51.008Z,1012.83
2022-09-12T07:31:50.900Z,1012.88
2022-09-12T07:32:50.864Z,1012.89
2022-09-12T07:33:54.432Z,1012.87
2022-09-12T07:34:50.834Z,1012.81
2022-09-12T07:35:50.829Z,1012.79
2022-09-12T07:36:50.832Z,1012.80
2022-09-12T07:37:50.793Z,1012.80
2022-09-12T07:38:53.586Z,1012.79
2022-09-12T07:39:50.852Z,1012.80
2022-09-12T07:40:50.766Z,1012.77
2022-09-12T07:41:50.763Z,1012.80
2022-09-12T07:42:50.742Z,1012.84
2022-09-12T07:43:50.718Z,1012.81
2022-09-12T07:44:50.707Z,1012.78
2022-09-12T07:45:50.754Z,1012.78
2022-09-12T07:46:50.696Z,1012.85
2022-09-12T07:47:50.664Z,1012.84
2022-09-12T07:48:50.643Z,1012.80
2022-09-12T07:49:50.645Z,1012.83
2022-09-12T07:50:50.619Z,1012.82
2022-09-12T07:51:50.629Z,1012.81
2022-09-12T07:52:50.589Z,1012.79
2022-09-12T07:53:50.617Z,1012.74
2022-09-12T07:54:50.563Z,1012.75
2022-09-12T07:55:50.549Z,1012.76
2022-09-12T07:56:50.571Z,1012.69
2022-09-12T07:57:50.519Z,1012.71
2022-09-12T07:58:50.511Z,1012.72
2022-09-12T07:59:52.875Z,1012.75
2022-09-12T08:00:50.479Z,1012.70
2022-09-12T08:01:50.496Z,1012.69
2022-09-12T08:02:50.491Z,1012.69
2022-09-12T08:03:50.442Z,1012.70
2022-09-12T08:04:50.439Z,1012.70
2022-09-12T08:05:50.413Z,1012.66
2022-09-12T08:06:50.456Z,1012.63
2022-09-12T08:07:52.729Z,1012.66
2022-09-12T08:08:50.378Z,1012.67
2022-09-12T08:09:50.351Z,1012.71
2022-09-12T08:10:50.349Z,1012.69
2022-09-12T08:11:50.373Z,1012.74
2022-09-12T08:12:50.386Z,1012.69
2022-09-12T08:13:54.844Z,1012.77
2022-09-12T08:14:50.308Z,1012.78
2022-09-12T08:15:50.313Z,1012.77
2022-09-12T08:16:50.283Z,1012.73
2022-09-12T08:17:50.253Z,1012.81
2022-09-12T08:18:50.233Z,1012.80
2022-09-12T08:19:50.267Z,1012.82
2022-09-12T08:20:50.216Z,1012.83
2022-09-12T08:21:50.219Z,1012.87
2022-09-12T08:22:50.188Z,1012.85
2022-09-12T08:23:50.170Z,1012.86
2022-09-12T08:24:50.155Z,1012.81
2022-09-12T08:25:50.139Z,1012.81
2022-09-12T08:26:50.149Z,1012.81
2022-09-12T08:27:50.108Z,1012.85
2022-09-12T08:28:50.117Z,1012.75
2022-09-12T08:29:50.104Z,1012.79
2022-09-12T08:30:50.140Z,1012.75
2022-09-12T08:31:52.896Z,1012.74
2022-09-12T08:32:50.054Z,1012.76
2022-09-12T08:33:50.030Z,1012.73
2022-09-12T08:34:50.022Z,1012.71
2022-09-12T08:35:50.153Z,1012.77
2022-09-12T08:36:50.033Z,1012.81
2022-09-12T08:37:49.974Z,1012.78
2022-09-12T08:38:49.981Z,1012.76
2022-09-12T08:39:50.033Z,1012.82
2022-09-12T08:40:49.948Z,1012.82
2022-09-12T08:41:49.946Z,1012.79
2022-09-12T08:42:49.912Z,1012.78
2022-09-12T08:43:52.065Z,1012.82
2022-09-12T08:44:49.886Z,1012.87
2022-09-12T08:45:49.917Z,1012.74
2022-09-12T08:46:50.529Z,1012.75
2022-09-12T08:47:49.913Z,1012.68
2022-09-12T08:48:49.828Z,1012.62
2022-09-12T08:49:49.815Z,1012.69
2022-09-12T08:50:50.143Z,1012.64
2022-09-12T08:51:49.808Z,1012.66
2022-09-12T08:52:49.779Z,1012.63
2022-09-12T08:53:49.758Z,1012.62
2022-09-12T08:54:49.753Z,1012.62
2022-09-12T08:55:49.730Z,1012.66
2022-09-12T08:56:49.742Z,1012.61
2022-09-12T08:57:49.710Z,1012.59
2022-09-12T08:58:49.700Z,1012.59
2022-09-12T08:59:49.684Z,1012.54
2022-09-12T09:00:49.676Z,1012.50
2022-09-12T09:01:49.720Z,1012.48
2022-09-12T09:02:49.682Z,1012.50
2022-09-12T09:03:49.626Z,1012.44
2022-09-12T09:04:49.627Z,1012.42
2022-09-12T09:05:49.606Z,1012.40
2022-09-12T09:06:49.609Z,1012.38
2022-09-12T09:07:49.580Z,1012.44
2022-09-12T09:08:49.574Z,1012.39
2022-09-12T09:09:49.552Z,1012.40
2022-09-12T09:10:49.536Z,1012.40
2022-09-12T09:11:49.541Z,1012.43
2022-09-12T09:12:49.509Z,1012.36
2022-09-12T09:13:49.518Z,1012.37
2022-09-12T09:14:49.499Z,1012.29
2022-09-12T09:15:49.551Z,1012.29
2022-09-12T09:16:49.475Z,1012.25
2022-09-12T09:17:49.482Z,1012.28
2022-09-12T09:18:49.435Z,1012.22
2022-09-12T09:19:50.976Z,1012.28
2022-09-12T09:20:49.415Z,1012.30
2022-09-12T09:21:49.418Z,1012.28
2022-09-12T09:22:49.372Z,1012.28
2022-09-12T09:23:49.375Z,1012.20
2022-09-12T09:24:49.372Z,1012.21
2022-09-12T09:25:49.349Z,1012.12
2022-09-12T09:26:49.341Z,1012.15
2022-09-12T09:27:49.343Z,1012.14
2022-09-12T09:28:49.353Z,1012.13
2022-09-12T09:29:49.312Z,1012.19
2022-09-12T09:30:49.342Z,1012.17
2022-09-12T09:31:49.289Z,1012.17
2022-09-12T09:32:49.249Z,1012.16
2022-09-12T09:33:49.250Z,1012.13
2022-09-12T09:34:49.232Z,1012.11
2022-09-12T09:35:49.252Z,1012.11
2022-09-12T09:36:49.271Z,1012.08
2022-09-12T09:37:49.210Z,1012.11
2022-09-12T09:38:49.180Z,1012.08
2022-09-12T09:39:49.219Z,1012.12
2022-09-12T09:40:49.195Z,1012.07
2022-09-12T09:41:49.168Z,1012.04
2022-09-12T09:42:49.132Z,1012.03
2022-09-12T09:43:49.137Z,1012.04
2022-09-12T09:44:49.209Z,1012.02
2022-09-12T09:45:49.138Z,1012.04
2022-09-12T09:46:49.211Z,1012.01
2022-09-12T09:47:49.089Z,1011.96
2022-09-12T09:48:49.060Z,1012.01
2022-09-12T09:49:49.039Z,1012.00
2022-09-12T09:50:49.049Z,1011.94
2022-09-12T09:51:49.038Z,1011.92
2022-09-12T09:52:49.015Z,1011.89
2022-09-12T09:53:48.993Z,1011.83
2022-09-12T09:54:48.973Z,1011.87
2022-09-12T09:55:48.992Z,1011.81
2022-09-12T09:56:48.957Z,1011.81
2022-09-12T09:57:48.949Z,1011.79
2022-09-12T09:58:49.014Z,1011.77
2022-09-12T09:59:48.959Z,1011.78
2022-09-12T10:00:48.903Z,1011.77
2022-09-12T10:01:48.935Z,1011.77
2022-09-12T10:02:48.968Z,1011.78
2022-09-12T10:03:48.866Z,1011.75
2022-09-12T10:04:48.871Z,1011.68
2022-09-12T10:05:48.850Z,1011.65
2022-09-12T10:06:48.844Z,1011.62
2022-09-12T10:07:48.847Z,1011.65
2022-09-12T10:08:48.811Z,1011.67
2022-09-12T10:09:48.794Z,1011.64
2022-09-12T10:10:48.787Z,1011.56
2022-09-12T10:11:48.810Z,1011.62
2022-09-12T10:12:48.760Z,1011.55
2022-09-12T10:13:48.952Z,1011.52
2022-09-12T10:14:48.732Z,1011.50
2022-09-12T10:15:48.802Z,1011.48
2022-09-12T10:16:48.721Z,1011.48
2022-09-12T10:17:48.696Z,1011.43
2022-09-12T10:18:48.687Z,1011.44
2022-09-12T10:20:04.498Z,1011.41
2022-09-12T10:20:48.660Z,1011.40
2022-09-12T10:21:48.666Z,1011.47
2022-09-12T10:22:48.755Z,1011.39
2022-09-12T10:23:48.672Z,1011.36
2022-09-12T10:24:48.595Z,1011.33
2022-09-12T10:25:48.666Z,1011.33
2022-09-12T10:26:48.616Z,1011.29
2022-09-12T10:27:48.589Z,1011.35
2022-09-12T10:28:48.544Z,1011.33
2022-09-12T10:29:48.562Z,1011.40
2022-09-12T10:30:48.612Z,1011.40
2022-09-12T10:31:48.525Z,1011.39
2022-09-12T10:32:48.515Z,1011.37
2022-09-12T10:33:48.624Z,1011.38
2022-09-12T10:34:48.476Z,1011.42
2022-09-12T10:35:48.486Z,1011.37
2022-09-12T10:36:48.446Z,1011.33
2022-09-12T10:37:52.219Z,1011.30
2022-09-12T10:38:48.492Z,1011.25
2022-09-12T10:39:48.425Z,1011.20
2022-09-12T10:40:48.491Z,1011.24
2022-09-12T10:41:48.402Z,1011.19
2022-09-12T10:42:48.447Z,1011.18
2022-09-12T10:43:48.454Z,1011.15
2022-09-12T10:44:48.358Z,1011.17
2022-09-12T10:45:48.410Z,1011.14
2022-09-12T10:46:48.405Z,1011.14
2022-09-12T10:47:48.328Z,1011.09
2022-09-12T10:48:48.290Z,1011.08
2022-09-12T10:49:48.455Z,1011.07
2022-09-12T10:50:48.272Z,1011.10
2022-09-12T10:51:48.291Z,1011.04
2022-09-12T10:52:48.252Z,1011.01
2022-09-12T10:53:48.338Z,1010.97
2022-09-12T10:54:48.233Z,1010.93
2022-09-12T10:55:48.295Z,1010.98
2022-09-12T10:56:48.217Z,1010.99
2022-09-12T10:57:48.183Z,1010.88
2022-09-12T10:58:48.212Z,1010.88
2022-09-12T10:59:48.200Z,1010.88
2022-09-12T11:00:48.160Z,1010.86
2022-09-12T11:01:48.215Z,1010.85
2022-09-12T11:02:48.193Z,1010.85
2022-09-12T11:03:48.325Z,1010.80
2022-09-12T11:04:48.090Z,1010.77
2022-09-12T11:05:48.082Z,1010.74
2022-09-12T11:06:48.083Z,1010.76
2022-09-12T11:07:48.059Z,1010.71
2022-09-12T11:08:48.044Z,1010.72
2022-09-12T11:09:48.157Z,1010.68
2022-09-12T11:10:48.015Z,1010.70
2022-09-12T11:11:48.023Z,1010.66
2022-09-12T11:12:47.995Z,1010.71
2022-09-12T11:13:48.124Z,1010.65
2022-09-12T11:14:47.970Z,1010.64
2022-09-12T11:15:48.018Z,1010.59
2022-09-12T11:16:48.041Z,1010.63
2022-09-12T11:17:47.955Z,1010.59
2022-09-12T11:18:47.956Z,1010.53
2022-09-12T11:19:47.910Z,1010.52
2022-09-12T11:20:47.895Z,1010.52
2022-09-12T11:21:47.908Z,1010.56
2022-09-12T11:22:48.055Z,1010.50
2022-09-12T11:23:48.036Z,1010.50
2022-09-12T11:24:47.869Z,1010.48
2022-09-12T11:25:47.842Z,1010.47
2022-09-12T11:26:47.963Z,1010.43
2022-09-12T11:27:47.896Z,1010.44
2022-09-12T11:28:47.798Z,1010.35
2022-09-12T11:29:47.791Z,1010.30
2022-09-12T11:30:47.796Z,1010.33
2022-09-12T11:31:47.781Z,1010.31
2022-09-12T11:32:47.749Z,1010.30
2022-09-12T11:33:47.954Z,1010.25
2022-09-12T11:34:53.777Z,1010.25
2022-09-12T11:35:53.035Z,1010.31
2022-09-12T11:36:47.743Z,1010.30
2022-09-12T11:37:47.699Z,1010.32
2022-09-12T11:38:47.866Z,1010.25
2022-09-12T11:39:49.626Z,1010.24
2022-09-12T11:40:47.666Z,1010.30
2022-09-12T11:41:47.690Z,1010.28
2022-09-12T11:42:47.648Z,1010.29
2022-09-12T11:43:47.724Z,1010.35
2022-09-12T11:44:47.621Z,1010.34
2022-09-12T11:45:47.638Z,1010.32
2022-09-12T11:46:51.551Z,1010.36
2022-09-12T11:47:47.583Z,1010.38
2022-09-12T11:48:47.748Z,1010.30
2022-09-12T11:49:47.551Z,1010.33
2022-09-12T11:50:47.546Z,1010.40
2022-09-12T11:51:47.567Z,1010.38
2022-09-12T11:52:47.515Z,1010.34
2022-09-12T11:53:47.691Z,1010.34
2022-09-12T11:54:52.808Z,1010.40
2022-09-12T11:55:47.504Z,1010.33
2022-09-12T11:56:47.464Z,1010.30
2022-09-12T11:57:47.456Z,1010.26
2022-09-12T11:58:47.545Z,1010.32
2022-09-12T11:59:47.441Z,1010.34
2022-09-12T12:00:47.424Z,1010.29
2022-09-12T12:01:48.683Z,1010.30
2022-09-12T12:02:47.483Z,1010.30
2022-09-12T12:03:47.421Z,1010.32
2022-09-12T12:04:47.364Z,1010.27
2022-09-12T12:05:47.375Z,1010.27